Ninaview, Colorado
Current Conditions -  °F | °C
As of 11:53 AM on Sunday 21 Dec 2014 (Local Time) from KLHX Reporting Station
Clear Clear  
Wind Chill: 43°   Ceiling: Unl
Heat Index: 45°   Visibility: 10mi
Dew Point: 30°   Wind: 5mph
Humidity: 56%   Direction: 130°SE
Pressure: 29.63"   Gusts: NA
Location:  37.8567°N, 103.111°W
Report Text: KLHX 211853Z AUTO 13004KT 10SM CLR 07/M01 A2963 RMK AO2 PRESFR SLP028 T00721011
Loading
Personal Weather Stations






























Interactive Weather Map New forecast layout! Learn more

10-Day Weather Forecast

Advertisements
Track Severe Weather on mobile